Liberty Hill, Texas
Current Conditions -  °F | °C
As of 12:55 PM on Monday 20 Oct 2014 (Local Time) from KRYW Reporting Station
Overcast Overcast  
Wind Chill: 76°   Ceiling: 3000
Heat Index: 78°   Visibility: 10mi
Dew Point: 60°   Wind: 5mph
Humidity: 58%   Direction: 110°ESE
Pressure: 30.1"   Gusts: NA
Location:  30.66°N, 97.92°W
Report Text: KRYW 201755Z AUTO 11004KT 10SM BKN030 BKN043 OVC050 25/16 A3010 RMK AO2 T02450157 10250 20170
Loading
Personal Weather Stations






























Interactive Weather Map
Tropical Storm Tracking
New forecast layout! Learn more

10-Day Weather Forecast

Advertisements
Track Severe Weather on mobile